createdAt,value
2022-12-14T00:04:44.341Z,36.27
2022-12-14T00:09:48.616Z,34.63
2022-12-14T00:14:51.528Z,33.50
2022-12-14T00:19:54.957Z,33.17
2022-12-14T00:24:59.500Z,34.33
2022-12-14T00:30:02.506Z,36.70
2022-12-14T00:35:06.125Z,34.97
2022-12-14T00:40:11.682Z,30.60
2022-12-14T00:45:14.656Z,30.57
2022-12-14T00:50:17.811Z,33.00
2022-12-14T00:55:22.073Z,33.07
2022-12-14T01:00:25.023Z,30.77
2022-12-14T01:05:27.950Z,29.10
2022-12-14T01:10:32.261Z,28.53
2022-12-14T01:15:36.126Z,26.63
2022-12-14T01:20:39.066Z,27.43
2022-12-14T01:25:43.368Z,26.37
2022-12-14T01:30:46.381Z,24.97
2022-12-14T01:35:49.273Z,27.97
2022-12-14T01:40:58.390Z,22.93
2022-12-14T01:46:01.360Z,24.00
2022-12-14T01:51:04.363Z,24.57
2022-12-14T01:56:09.013Z,24.90
2022-12-14T02:01:12.575Z,22.87
2022-12-14T02:06:20.180Z,20.40
2022-12-14T02:11:32.566Z,21.63
2022-12-14T02:16:37.016Z,20.87
2022-12-14T02:22:07.991Z,20.20
2022-12-14T02:27:27.507Z,21.27
2022-12-14T02:32:48.839Z,19.63
2022-12-14T02:38:01.956Z,21.10
2022-12-14T02:43:15.533Z,18.90
2022-12-14T02:48:24.116Z,18.70
2022-12-14T02:53:33.050Z,18.43
2022-12-14T02:58:40.076Z,15.77
2022-12-14T03:03:44.596Z,18.60
2022-12-14T03:08:48.427Z,21.10
2022-12-14T03:13:56.975Z,23.07
2022-12-14T03:19:07.358Z,23.73
2022-12-14T03:24:13.624Z,21.50
2022-12-14T03:29:22.194Z,19.77
2022-12-14T03:34:36.883Z,18.17
2022-12-14T03:39:42.970Z,18.40
2022-12-14T03:44:56.981Z,18.97
2022-12-14T03:50:04.706Z,17.40
2022-12-14T03:55:19.364Z,18.30
2022-12-14T04:00:25.291Z,17.23
2022-12-14T04:05:42.888Z,16.47
2022-12-14T04:11:11.303Z,16.40
2022-12-14T04:16:50.358Z,12.80
2022-12-14T04:21:57.674Z,15.20
2022-12-14T04:27:06.614Z,15.17
2022-12-14T04:32:14.667Z,15.10
2022-12-14T04:37:23.587Z,12.83
2022-12-14T04:42:30.536Z,12.67
2022-12-14T04:47:38.446Z,14.00
2022-12-14T04:52:48.910Z,12.37
2022-12-14T04:57:56.426Z,13.63
2022-12-14T05:03:17.899Z,13.87
2022-12-14T05:08:31.327Z,14.13
2022-12-14T05:13:40.126Z,13.90
2022-12-14T05:18:44.563Z,14.23
2022-12-14T05:23:48.792Z,15.93
2022-12-14T05:28:51.699Z,15.60
2022-12-14T05:33:54.560Z,18.00
2022-12-14T05:38:58.847Z,14.50
2022-12-14T05:44:01.794Z,16.53
2022-12-14T05:49:04.955Z,15.97
2022-12-14T05:54:09.175Z,15.30
2022-12-14T05:59:15.556Z,15.00
2022-12-14T06:04:19.167Z,14.50
2022-12-14T06:09:23.837Z,14.20
2022-12-14T06:14:26.938Z,14.10
2022-12-14T06:19:30.811Z,14.17
2022-12-14T06:24:35.070Z,12.30
2022-12-14T06:29:38.021Z,12.47
2022-12-14T06:34:42.531Z,12.10
2022-12-14T06:39:53.970Z,13.30
2022-12-14T06:44:57.360Z,12.23
2022-12-14T06:50:00.370Z,12.30
2022-12-14T06:55:05.152Z,12.30
2022-12-14T07:00:12.195Z,12.60
2022-12-14T07:05:16.042Z,12.13
2022-12-14T07:10:20.511Z,14.10
2022-12-14T07:15:23.416Z,13.63
2022-12-14T07:20:26.309Z,13.43
2022-12-14T07:25:30.557Z,13.40
2022-12-14T07:30:33.497Z,12.10
2022-12-14T07:35:36.380Z,13.37
2022-12-14T07:40:40.626Z,15.00
2022-12-14T07:45:43.535Z,14.90
2022-12-14T07:50:46.481Z,13.60
2022-12-14T07:55:50.805Z,13.60
2022-12-14T08:00:53.680Z,17.43
2022-12-14T08:05:58.316Z,14.90
2022-12-14T08:11:03.001Z,13.80
2022-12-14T08:16:07.368Z,13.70
2022-12-14T08:21:12.385Z,11.93
2022-12-14T08:26:17.049Z,13.03
2022-12-14T08:31:21.725Z,17.00
2022-12-14T08:36:26.817Z,20.37
2022-12-14T08:41:31.493Z,15.87
2022-12-14T08:46:35.750Z,19.07
2022-12-14T08:51:39.005Z,14.20
2022-12-14T08:56:43.262Z,14.50
2022-12-14T09:01:46.254Z,14.67
2022-12-14T09:06:49.314Z,14.50
2022-12-14T09:11:53.788Z,14.80
2022-12-14T09:16:56.708Z,16.40
2022-12-14T09:21:59.675Z,13.00
2022-12-14T09:27:04.409Z,13.40
2022-12-14T09:32:07.375Z,12.30
2022-12-14T09:37:10.301Z,13.70
2022-12-14T09:42:35.581Z,10.57
2022-12-14T09:47:44.280Z,12.73
2022-12-14T09:52:49.930Z,12.80
2022-12-14T09:57:59.712Z,12.60
2022-12-14T10:03:26.087Z,14.10
2022-12-14T10:08:36.508Z,11.20
2022-12-14T10:13:52.389Z,13.40
2022-12-14T10:19:18.172Z,12.00
2022-12-14T10:24:26.660Z,13.40
2022-12-14T10:29:36.335Z,14.03
2022-12-14T10:34:42.451Z,14.17
2022-12-14T10:39:54.511Z,12.63
2022-12-14T10:50:43.117Z,13.90
2022-12-14T10:55:56.970Z,13.40
2022-12-14T11:01:01.375Z,14.37
2022-12-14T11:06:13.242Z,12.73
2022-12-14T11:11:20.015Z,14.13
2022-12-14T11:16:36.511Z,15.17
2022-12-14T11:21:40.533Z,15.20
2022-12-14T11:26:44.796Z,14.57
2022-12-14T11:31:52.510Z,15.53
2022-12-14T11:36:55.449Z,16.17
2022-12-14T11:42:02.662Z,16.53
2022-12-14T11:47:13.726Z,15.33
2022-12-14T11:52:19.830Z,17.17
2022-12-14T11:57:31.679Z,16.67
2022-12-14T12:02:38.840Z,13.40
2022-12-14T12:07:46.283Z,15.83
2022-12-14T12:12:54.199Z,14.97
2022-12-14T12:18:03.702Z,15.63
2022-12-14T12:23:15.357Z,14.73
2022-12-14T12:28:23.139Z,15.30
2022-12-14T12:33:35.763Z,15.37
2022-12-14T12:38:49.925Z,13.90
2022-12-14T12:43:56.831Z,14.97
2022-12-14T12:49:06.003Z,16.10
2022-12-14T12:54:15.537Z,16.00
2022-12-14T12:59:21.337Z,16.30
2022-12-14T13:04:33.237Z,17.00
2022-12-14T13:09:42.460Z,16.80
2022-12-14T13:14:49.859Z,16.80
2022-12-14T13:19:57.575Z,16.60
2022-12-14T13:25:06.520Z,16.47
2022-12-14T13:30:25.723Z,17.73
2022-12-14T13:35:43.911Z,15.73
2022-12-14T13:41:08.954Z,17.47
2022-12-14T13:46:21.366Z,17.07
2022-12-14T13:51:30.677Z,17.70
2022-12-14T13:56:38.425Z,17.53
2022-12-14T14:01:57.947Z,17.03
2022-12-14T14:07:33.997Z,17.10
2022-12-14T14:12:44.520Z,17.20
2022-12-14T14:17:49.724Z,17.10
2022-12-14T14:23:25.730Z,17.50
2022-12-14T14:28:31.722Z,16.43
2022-12-14T14:33:46.015Z,17.47
2022-12-14T14:38:50.934Z,17.53
2022-12-14T14:43:59.352Z,16.33
2022-12-14T14:49:02.427Z,17.43
2022-12-14T14:55:06.956Z,26.37
2022-12-14T15:00:02.872Z,18.33
2022-12-14T15:10:33.540Z,20.17
2022-12-14T15:15:41.230Z,18.13
2022-12-14T15:20:54.647Z,18.37
2022-12-14T15:25:59.830Z,18.03
2022-12-14T15:31:05.089Z,21.87
2022-12-14T15:36:13.660Z,16.43
2022-12-14T15:41:18.921Z,18.90
2022-12-14T15:46:28.864Z,19.50
2022-12-14T15:51:34.243Z,21.97
2022-12-14T15:56:39.924Z,16.70
2022-12-14T16:01:53.744Z,21.63
2022-12-14T16:07:09.036Z,21.57
2022-12-14T16:12:20.974Z,18.93
2022-12-14T16:17:30.053Z,28.40
2022-12-14T16:22:34.356Z,19.70
2022-12-14T16:27:40.052Z,19.77
2022-12-14T16:32:44.642Z,18.47
2022-12-14T16:37:56.409Z,17.30
2022-12-14T16:42:59.344Z,18.33
2022-12-14T16:48:09.021Z,19.57
2022-12-14T16:53:17.516Z,21.10
2022-12-14T16:58:20.428Z,19.70
2022-12-14T17:03:25.114Z,20.20
2022-12-14T17:08:28.578Z,18.73
2022-12-14T17:13:31.886Z,21.13
2022-12-14T17:18:40.225Z,20.23
2022-12-14T17:23:45.050Z,24.27
2022-12-14T17:28:48.049Z,23.87
2022-12-14T17:33:54.059Z,23.63
2022-12-14T17:38:57.013Z,20.50
2022-12-14T17:44:00.075Z,19.73
2022-12-14T17:49:06.889Z,22.73
2022-12-14T17:54:15.203Z,18.17
2022-12-14T17:59:18.102Z,20.03
2022-12-14T18:04:22.415Z,19.27
2022-12-14T18:09:25.288Z,20.90
2022-12-14T18:14:28.165Z,19.97
2022-12-14T18:19:32.496Z,18.57
2022-12-14T18:24:35.477Z,18.67
2022-12-14T18:29:38.901Z,19.67
2022-12-14T18:34:43.282Z,20.00
2022-12-14T18:39:46.273Z,23.73
2022-12-14T18:44:52.549Z,20.77
2022-12-14T18:49:57.846Z,23.50
2022-12-14T18:55:00.842Z,24.33
2022-12-14T19:00:04.624Z,25.10
2022-12-14T19:05:09.806Z,25.37
2022-12-14T19:10:17.659Z,23.70
2022-12-14T19:15:22.736Z,22.83
2022-12-14T19:20:27.944Z,22.10
2022-12-14T19:25:31.082Z,22.80
2022-12-14T19:30:34.731Z,27.00
2022-12-14T19:35:40.531Z,27.60
2022-12-14T19:40:46.241Z,26.67
2022-12-14T19:45:49.165Z,24.30
2022-12-14T19:50:53.603Z,24.37
2022-12-14T19:55:56.544Z,27.13
2022-12-14T20:00:59.445Z,25.90
2022-12-14T20:06:05.214Z,33.07
2022-12-14T20:11:10.081Z,26.73
2022-12-14T20:16:17.061Z,24.20
2022-12-14T20:21:23.085Z,22.27
2022-12-14T20:26:27.515Z,22.63
2022-12-14T20:31:30.431Z,22.60
2022-12-14T20:36:34.955Z,22.20
2022-12-14T20:41:37.876Z,23.07
2022-12-14T20:46:42.277Z,26.03
2022-12-14T20:51:47.539Z,24.67
2022-12-14T20:56:50.497Z,22.53
2022-12-14T21:01:56.204Z,21.17
2022-12-14T21:07:01.063Z,22.00
2022-12-14T21:12:22.076Z,23.53
2022-12-14T21:17:27.247Z,22.53
2022-12-14T21:22:31.639Z,22.50
2022-12-14T21:27:38.123Z,25.60
2022-12-14T21:32:41.222Z,24.67
2022-12-14T21:37:45.514Z,20.50
2022-12-14T21:42:50.663Z,19.53
2022-12-14T21:47:53.562Z,21.30
2022-12-14T21:52:57.865Z,20.73
2022-12-14T21:58:18.629Z,36.10
2022-12-14T22:03:21.583Z,30.93
2022-12-14T22:08:26.171Z,21.00
2022-12-14T22:13:29.445Z,21.07
2022-12-14T22:18:32.640Z,20.27
2022-12-14T22:23:43.165Z,31.57
2022-12-14T22:28:47.034Z,38.83
2022-12-14T22:33:51.121Z,30.13
2022-12-14T22:38:57.392Z,28.47
2022-12-14T22:44:00.318Z,27.80
2022-12-14T22:49:04.155Z,29.30
2022-12-14T22:54:08.417Z,29.10
2022-12-14T22:59:14.759Z,30.07
2022-12-14T23:04:17.929Z,23.47
2022-12-14T23:09:39.558Z,30.13
2022-12-14T23:14:59.687Z,31.77
2022-12-14T23:20:19.975Z,30.40
2022-12-14T23:25:41.851Z,28.77
2022-12-14T23:31:02.528Z,27.40
2022-12-14T23:36:23.666Z,27.30
2022-12-14T23:41:45.139Z,24.97
2022-12-14T23:47:05.505Z,25.60
2022-12-14T23:52:25.765Z,27.20
2022-12-14T23:57:47.582Z,30.73
